Terminal Aerodrome Forecast
Issued by NWS

Home | Current Version | Previous Version | Text Only | Print | Product List | Glossary On
Versions: 1 2 3 4 5 6 7 8 9 10 11 12 13 14 15 16 17 18 19
721
FTAK31 PAJN 242335
TAFAGY
TAF
PAGY 242335Z 2500/2524 20010G20KT P6SM FEW015 SCT025 OVC040
      TEMPO 2500/2504 5SM RA BR SCT010 OVC025
     FM250400 20010G20KT P6SM SCT020 BKN040 OVC060
      TEMPO 2504/2508 3SM -RA BR FEW010 BKN025 OVC040
     FM251500 20015G25KT 4SM -RA BR FEW004 SCT025 OVC040
      AMD LTD TO CLD VIS AND WIND=

USA.gov is the U.S. government's official web portal to all federal, state and local government web resources and services.